createdAt,value
2019-05-15T00:00:55.799Z,1.40
2019-05-15T00:05:59.097Z,1.60
2019-05-15T00:11:02.472Z,1.60
2019-05-15T00:16:08.262Z,1.45
2019-05-15T00:21:10.888Z,1.52
2019-05-15T00:26:14.257Z,1.75
2019-05-15T00:31:18.652Z,1.45
2019-05-15T00:36:22.128Z,1.42
2019-05-15T00:41:25.439Z,1.20
2019-05-15T00:46:29.114Z,1.47
2019-05-15T00:51:32.506Z,1.30
2019-05-15T00:56:35.799Z,1.72
2019-05-15T01:01:39.098Z,1.30
2019-05-15T01:06:42.409Z,1.52
2019-05-15T01:11:45.699Z,1.45
2019-05-15T01:16:49.167Z,1.47
2019-05-15T01:21:52.511Z,1.40
2019-05-15T01:26:55.813Z,1.65
2019-05-15T01:31:59.367Z,1.30
2019-05-15T01:37:02.737Z,1.40
2019-05-15T01:42:08.207Z,1.42
2019-05-15T01:47:11.106Z,1.40
2019-05-15T01:52:14.467Z,1.30
2019-05-15T01:57:18.226Z,1.40
2019-05-15T02:02:21.588Z,1.30
2019-05-15T02:07:24.914Z,1.40
2019-05-15T02:12:28.668Z,1.37
2019-05-15T02:17:32.073Z,1.60
2019-05-15T02:22:35.401Z,1.30
2019-05-15T02:27:39.440Z,1.27
2019-05-15T02:32:42.850Z,1.25
2019-05-15T02:37:48.825Z,1.30
2019-05-15T02:42:51.270Z,1.00
2019-05-15T02:47:54.588Z,1.25
2019-05-15T02:53:00.510Z,1.50
2019-05-15T02:58:02.982Z,1.20
2019-05-15T03:03:09.242Z,1.40
2019-05-15T03:08:11.321Z,1.50
2019-05-15T03:13:14.619Z,1.00
2019-05-15T03:18:19.427Z,1.20
2019-05-15T03:23:22.926Z,1.00
2019-05-15T03:28:29.168Z,1.10
2019-05-15T03:33:36.177Z,1.35
2019-05-15T03:38:39.079Z,1.17
2019-05-15T03:43:41.299Z,1.20
2019-05-15T03:48:44.628Z,1.10
2019-05-15T03:53:49.719Z,1.98
2019-05-15T03:58:52.956Z,2.75
2019-05-15T04:03:59.622Z,3.20
2019-05-15T04:09:01.797Z,2.95
2019-05-15T04:14:05.101Z,3.08
2019-05-15T04:19:09.672Z,3.45
2019-05-15T04:24:13.311Z,2.98
2019-05-15T04:29:19.438Z,2.80
2019-05-15T04:34:21.696Z,2.70
2019-05-15T04:39:25.029Z,2.77
2019-05-15T04:44:29.064Z,2.58
2019-05-15T04:49:32.373Z,2.35
2019-05-15T04:54:35.715Z,2.25
2019-05-15T04:59:39.321Z,2.15
2019-05-15T05:04:42.638Z,2.52
2019-05-15T05:09:48.767Z,2.27
2019-05-15T05:14:51.006Z,2.05
2019-05-15T05:19:54.323Z,2.42
2019-05-15T05:24:58.489Z,2.35
2019-05-15T05:30:01.859Z,2.40
2019-05-15T05:35:08.401Z,2.27
2019-05-15T05:40:11.295Z,2.00
2019-05-15T05:45:14.597Z,2.30
2019-05-15T05:50:43.922Z,2.12
2019-05-15T05:55:45.571Z,2.42
2019-05-15T06:00:49.313Z,2.30
2019-05-15T06:05:52.699Z,2.10
2019-05-15T06:10:58.318Z,2.02
2019-05-15T06:16:01.060Z,2.17
2019-05-15T06:21:04.386Z,1.95
2019-05-15T06:26:09.602Z,1.77
2019-05-15T06:31:12.779Z,1.92
2019-05-15T06:36:17.995Z,1.80
2019-05-15T06:41:21.181Z,2.45
2019-05-15T06:46:24.538Z,1.95
2019-05-15T06:51:28.796Z,1.90
2019-05-15T06:56:32.228Z,2.37
2019-05-15T07:01:35.527Z,2.25
2019-05-15T07:06:38.829Z,2.95
2019-05-15T07:11:42.145Z,1.98
2019-05-15T07:16:45.464Z,2.22
2019-05-15T07:21:48.867Z,2.15
2019-05-15T07:26:52.198Z,1.90
2019-05-15T07:31:55.487Z,1.77
2019-05-15T07:36:59.304Z,1.95
2019-05-15T07:42:02.649Z,1.80
2019-05-15T07:47:05.949Z,1.90
2019-05-15T07:52:09.273Z,1.70
2019-05-15T07:57:12.594Z,2.30
2019-05-15T08:02:15.916Z,1.92
2019-05-15T08:07:19.227Z,1.85
2019-05-15T08:12:22.515Z,2.47
2019-05-15T08:17:28.735Z,2.00
2019-05-15T08:22:30.851Z,2.00
2019-05-15T08:27:34.242Z,1.60
2019-05-15T08:32:38.875Z,1.57
2019-05-15T08:37:42.394Z,1.75
2019-05-15T08:42:45.706Z,1.77
2019-05-15T08:47:49.423Z,1.55
2019-05-15T08:52:52.794Z,1.65
2019-05-15T08:58:05.816Z,1.82
2019-05-15T09:03:01.184Z,1.82
2019-05-15T09:08:04.513Z,1.50
2019-05-15T09:13:09.579Z,2.00
2019-05-15T09:18:16.182Z,1.60
2019-05-15T09:23:19.721Z,2.05
2019-05-15T09:28:23.367Z,1.90
2019-05-15T09:33:28.559Z,1.47
2019-05-15T09:38:31.699Z,1.70
2019-05-15T09:43:35.014Z,2.02
2019-05-15T09:48:39.125Z,1.67
2019-05-15T09:53:42.515Z,1.42
2019-05-15T09:58:45.813Z,1.70
2019-05-15T10:03:49.311Z,1.50
2019-05-15T10:08:52.646Z,1.55
2019-05-15T10:13:58.372Z,1.57
2019-05-15T10:19:01.066Z,1.70
2019-05-15T10:24:04.376Z,1.40
2019-05-15T10:29:09.156Z,1.57
2019-05-15T10:34:12.617Z,2.00
2019-05-15T10:39:18.060Z,1.20
2019-05-15T10:44:21.026Z,1.30
2019-05-15T10:49:24.386Z,1.77
2019-05-15T10:54:29.183Z,1.20
2019-05-15T10:59:32.623Z,1.47
2019-05-15T11:04:35.955Z,1.70
2019-05-15T11:09:40.628Z,2.05
2019-05-15T11:14:44.102Z,1.50
2019-05-15T11:19:49.778Z,1.30
2019-05-15T11:24:53.199Z,1.52
2019-05-15T11:29:58.538Z,1.50
2019-05-15T11:35:04.340Z,1.50
2019-05-15T11:40:10.043Z,1.35
2019-05-15T11:45:13.422Z,1.40
2019-05-15T11:50:19.987Z,1.37
2019-05-15T11:55:21.823Z,1.80
2019-05-15T12:00:27.240Z,1.20
2019-05-15T12:05:30.241Z,1.75
2019-05-15T12:10:33.565Z,1.42
2019-05-15T12:15:38.907Z,1.10
2019-05-15T12:20:41.958Z,1.20
2019-05-15T12:25:45.259Z,1.30
2019-05-15T12:35:53.672Z,1.20
2019-05-15T12:37:59.193Z,1.47
2019-05-15T13:01:18.448Z,1.60
2019-05-15T13:06:22.209Z,1.30
2019-05-15T13:11:25.528Z,1.40
2019-05-15T13:16:28.837Z,1.42
2019-05-15T13:21:32.180Z,1.20
2019-05-15T13:26:35.508Z,1.50
2019-05-15T13:31:38.839Z,1.95
2019-05-15T13:36:42.184Z,1.50
2019-05-15T13:41:48.181Z,1.55
2019-05-15T13:46:50.570Z,1.20
2019-05-15T13:51:53.911Z,1.27
2019-05-15T13:56:58.220Z,1.40
2019-05-15T14:02:01.668Z,1.10
2019-05-15T14:07:05.022Z,1.07
2019-05-15T14:12:12.124Z,1.40
2019-05-15T14:17:13.427Z,1.62
2019-05-15T14:22:16.750Z,1.20
2019-05-15T14:27:20.074Z,1.70
2019-05-15T14:32:35.501Z,1.62
2019-05-15T14:37:28.721Z,1.55
2019-05-15T14:42:32.678Z,1.67
2019-05-15T14:47:38.040Z,1.75
2019-05-15T14:52:41.017Z,1.85
2019-05-15T14:57:44.620Z,1.32
2019-05-15T15:02:49.431Z,1.70
2019-05-15T15:07:52.964Z,1.57
2019-05-15T15:12:58.403Z,1.65
2019-05-15T15:18:01.360Z,1.60
2019-05-15T15:23:04.707Z,2.02
2019-05-15T15:28:08.626Z,1.90
2019-05-15T15:33:12.041Z,1.55
2019-05-15T15:38:15.382Z,1.90
2019-05-15T15:43:18.720Z,2.62
2019-05-15T15:48:22.046Z,2.02
2019-05-15T15:53:25.392Z,1.90
2019-05-15T15:58:29.184Z,1.95
2019-05-15T16:03:32.516Z,2.20
2019-05-15T16:08:51.191Z,1.87
2019-05-15T16:13:40.907Z,2.00
2019-05-15T16:18:44.246Z,2.17
2019-05-15T16:23:48.053Z,1.80
2019-05-15T16:28:51.471Z,2.05
2019-05-15T16:33:54.780Z,2.17
2019-05-15T16:39:07.553Z,1.90
2019-05-15T16:44:03.268Z,1.87
2019-05-15T16:49:06.684Z,2.05
2019-05-15T16:54:10.003Z,1.80
2019-05-15T16:59:13.421Z,2.22
2019-05-15T17:04:18.191Z,2.20
2019-05-15T17:09:22.030Z,2.08
2019-05-15T17:14:25.424Z,2.02
2019-05-15T17:19:29.310Z,2.12
2019-05-15T17:24:32.826Z,1.82
2019-05-15T17:29:38.486Z,2.50
2019-05-15T17:34:41.525Z,1.90
2019-05-15T17:39:45.160Z,1.87
2019-05-15T17:44:48.893Z,1.90
2019-05-15T17:49:52.182Z,1.57
2019-05-15T17:54:55.534Z,2.15
2019-05-15T17:59:59.146Z,1.70
2019-05-15T18:05:02.565Z,1.98
2019-05-15T18:10:08.191Z,1.60
2019-05-15T18:15:11.055Z,3.05
2019-05-15T18:20:29.211Z,2.10
2019-05-15T18:25:31.845Z,2.08
2019-05-15T18:30:35.205Z,2.02
2019-05-15T18:35:38.786Z,1.47
2019-05-15T18:40:42.160Z,1.67
2019-05-15T18:45:47.626Z,1.98
2019-05-15T18:50:50.647Z,2.45
2019-05-15T18:55:53.939Z,1.70
2019-05-15T19:00:58.346Z,1.95
2019-05-15T19:06:01.849Z,1.52
2019-05-15T19:11:05.178Z,1.25
2019-05-15T19:16:08.927Z,1.77
2019-05-15T19:21:12.267Z,1.67
2019-05-15T19:26:17.631Z,1.70
2019-05-15T19:31:26.198Z,2.10
2019-05-15T19:36:27.619Z,1.52
2019-05-15T19:41:30.829Z,1.37
2019-05-15T19:46:34.104Z,1.72
2019-05-15T19:51:38.160Z,1.87
2019-05-15T19:56:41.606Z,1.12
2019-05-15T20:01:44.897Z,2.05
2019-05-15T20:06:48.501Z,2.30
2019-05-15T20:11:51.881Z,1.90
2019-05-15T20:16:55.211Z,1.47
2019-05-15T20:21:58.599Z,1.40
2019-05-15T20:27:01.905Z,1.52
2019-05-15T20:32:05.198Z,1.72
2019-05-15T20:37:08.515Z,1.85
2019-05-15T20:42:11.848Z,1.65
2019-05-15T20:47:15.190Z,1.60
2019-05-15T20:52:21.634Z,1.87
2019-05-15T20:57:23.566Z,1.30
2019-05-15T21:02:28.988Z,1.57
2019-05-15T21:07:38.520Z,1.70
2019-05-15T21:12:40.516Z,1.70
2019-05-15T21:17:43.591Z,1.12
2019-05-15T21:22:49.239Z,1.35
2019-05-15T21:27:52.752Z,1.72
2019-05-15T21:32:58.238Z,1.67
2019-05-15T21:38:01.094Z,1.87
2019-05-15T21:43:04.624Z,1.22
2019-05-15T21:48:09.055Z,1.37
2019-05-15T21:53:12.431Z,1.67
2019-05-15T21:58:17.968Z,1.60
2019-05-15T22:03:20.834Z,1.70
2019-05-15T22:08:24.151Z,1.80
2019-05-15T22:13:31.138Z,1.52
2019-05-15T22:18:32.488Z,1.55
2019-05-15T22:23:38.302Z,1.50
2019-05-15T22:28:41.103Z,1.57
2019-05-15T22:33:44.404Z,1.37
2019-05-15T22:38:49.979Z,1.45
2019-05-15T22:43:52.802Z,1.30
2019-05-15T22:48:56.120Z,1.12
2019-05-15T22:53:59.445Z,1.35
2019-05-15T22:59:02.743Z,1.20
2019-05-15T23:04:06.091Z,1.35
2019-05-15T23:09:09.394Z,1.22
2019-05-15T23:14:12.689Z,1.32
2019-05-15T23:19:16.108Z,1.12
2019-05-15T23:24:19.433Z,1.10
2019-05-15T23:29:25.337Z,1.17
2019-05-15T23:34:28.063Z,1.10
2019-05-15T23:39:31.464Z,1.20
2019-05-15T23:44:34.806Z,1.42
2019-05-15T23:49:38.330Z,1.22
2019-05-15T23:54:41.632Z,1.22
2019-05-15T23:59:44.967Z,1.07
